Time;durP1;ratioP1;P1;durP2;ratioP2;P2;SDS_P1;SDS_P2;PMS_P1;PMS_P2;Temp;Humidity;BMP_temperature;BMP_pressure;BME280_temperature;BME280_humidity;BME280_pressure;Samples;Min_cycle;Max_cycle;Signal;HPM_P1;HPM_P2
2022/12/18 00:02:06;;;;;;;44.47;21.17;;;;;;;;;;5132523;27;20233;-80
2022/12/18 00:04:34;;;;;;;40.60;20.93;;;;;;;;;;5132689;27;20229;-80
2022/12/18 00:07:01;;;;;;;44.40;21.23;;;;;;;;;;5133685;27;20198;-80
2022/12/18 00:09:29;;;;;;;38.90;19.77;;;;;;;;;;5132359;27;20216;-80
2022/12/18 00:11:56;;;;;;;39.37;19.60;;;;;;;;;;5133526;27;20204;-80
2022/12/18 00:14:23;;;;;;;36.70;20.07;;;;;;;;;;5133521;27;20233;-80
2022/12/18 00:16:50;;;;;;;39.20;21.00;;;;;;;;;;5133275;27;20230;-80
2022/12/18 00:19:18;;;;;;;41.97;20.77;;;;;;;;;;5133949;27;20205;-80
2022/12/18 00:21:46;;;;;;;39.30;21.13;;;;;;;;;;5133312;27;20236;-80
2022/12/18 00:24:14;;;;;;;39.67;20.70;;;;;;;;;;5132685;27;20197;-79
2022/12/18 00:26:41;;;;;;;37.63;20.60;;;;;;;;;;5133395;27;20592;-79
2022/12/18 00:29:09;;;;;;;36.73;19.87;;;;;;;;;;5133036;27;20220;-79
2022/12/18 00:31:36;;;;;;;37.73;20.93;;;;;;;;;;5133325;27;20205;-79
2022/12/18 00:34:04;;;;;;;37.10;20.20;;;;;;;;;;5133053;27;20639;-80
2022/12/18 00:36:33;;;;;;;36.37;19.13;;;;;;;;;;5133732;27;20221;-80
2022/12/18 00:39:02;;;;;;;39.63;20.83;;;;;;;;;;5133319;27;20209;-80
2022/12/18 00:44:15;;;;;;;37.07;20.17;;;;;;;;;;5133016;28;20212;-80
2022/12/18 00:46:43;;;;;;;39.40;20.53;;;;;;;;;;5132970;28;20265;-80
2022/12/18 00:49:11;;;;;;;41.77;20.57;;;;;;;;;;5133400;28;20201;-80
2022/12/18 00:51:38;;;;;;;36.53;20.47;;;;;;;;;;5133431;28;20672;-80
2022/12/18 00:54:06;;;;;;;37.17;20.40;;;;;;;;;;5133050;28;20739;-80
2022/12/18 00:56:34;;;;;;;38.30;19.73;;;;;;;;;;5133451;28;20229;-80
2022/12/18 00:59:01;;;;;;;38.63;19.50;;;;;;;;;;5122828;28;20198;-80
2022/12/18 01:01:28;;;;;;;38.70;20.23;;;;;;;;;;5122682;28;20268;-81
2022/12/18 01:03:55;;;;;;;39.60;20.20;;;;;;;;;;5132510;28;20559;-80
2022/12/18 01:06:23;;;;;;;39.60;21.10;;;;;;;;;;5123504;28;20198;-81
2022/12/18 01:08:50;;;;;;;41.37;21.07;;;;;;;;;;5121738;28;20610;-81
2022/12/18 01:11:19;;;;;;;43.10;22.10;;;;;;;;;;5133109;28;20194;-80
2022/12/18 01:13:47;;;;;;;39.33;21.33;;;;;;;;;;5132047;28;20225;-80
2022/12/18 01:16:14;;;;;;;39.53;19.87;;;;;;;;;;5135614;27;20201;-80
2022/12/18 01:18:42;;;;;;;39.27;20.83;;;;;;;;;;5137012;27;20196;-79
2022/12/18 01:21:10;;;;;;;43.03;21.87;;;;;;;;;;5136967;27;20282;-79
2022/12/18 01:23:37;;;;;;;38.10;19.43;;;;;;;;;;5136637;27;20244;-79
2022/12/18 01:26:08;;;;;;;41.77;20.90;;;;;;;;;;5136529;27;20630;-79
2022/12/18 01:28:36;;;;;;;41.13;21.23;;;;;;;;;;5136117;27;20233;-79
2022/12/18 01:31:14;;;;;;;33.33;18.37;;;;;;;;;;5136337;27;20189;-79
2022/12/18 01:33:41;;;;;;;37.07;18.03;;;;;;;;;;5116682;27;20202;-79
2022/12/18 01:36:09;;;;;;;38.07;20.13;;;;;;;;;;5130128;27;20244;-80
2022/12/18 01:38:36;;;;;;;37.67;20.17;;;;;;;;;;5136296;27;20725;-79
2022/12/18 01:41:03;;;;;;;38.07;20.23;;;;;;;;;;5136505;27;20286;-80
2022/12/18 01:43:49;;;;;;;37.63;17.20;;;;;;;;;;5136112;27;20201;-79
2022/12/18 01:46:18;;;;;;;41.20;20.63;;;;;;;;;;5136470;27;20193;-79
2022/12/18 01:48:46;;;;;;;40.53;20.53;;;;;;;;;;5135218;27;20733;-79
2022/12/18 01:51:14;;;;;;;35.17;18.93;;;;;;;;;;5136595;27;20337;-79
2022/12/18 01:53:43;;;;;;;36.03;18.47;;;;;;;;;;5136032;27;20247;-79
2022/12/18 01:56:10;;;;;;;38.13;18.53;;;;;;;;;;5136126;27;20201;-79
2022/12/18 01:58:41;;;;;;;38.00;19.93;;;;;;;;;;5135831;27;20250;-79
2022/12/18 02:01:10;;;;;;;39.03;21.07;;;;;;;;;;5136050;27;20316;-80
2022/12/18 02:03:37;;;;;;;34.97;19.43;;;;;;;;;;5136299;27;20197;-79
2022/12/18 02:06:09;;;;;;;38.70;19.73;;;;;;;;;;5127419;27;20197;-79
2022/12/18 02:08:39;;;;;;;36.43;18.83;;;;;;;;;;5136001;27;20224;-79
2022/12/18 02:11:09;;;;;;;40.43;21.17;;;;;;;;;;5135514;27;20242;-80
2022/12/18 02:13:40;;;;;;;38.67;19.70;;;;;;;;;;5135508;27;20265;-80
2022/12/18 02:16:15;;;;;;;40.90;20.87;;;;;;;;;;5135615;27;20292;-79
2022/12/18 02:18:45;;;;;;;39.50;20.77;;;;;;;;;;5136194;27;20197;-79
2022/12/18 02:21:19;;;;;;;38.57;20.73;;;;;;;;;;5135463;27;20242;-79
2022/12/18 02:23:49;;;;;;;39.67;20.70;;;;;;;;;;5135940;27;20269;-80
2022/12/18 02:26:20;;;;;;;38.70;20.23;;;;;;;;;;5134611;27;20251;-80
2022/12/18 02:28:49;;;;;;;38.43;20.50;;;;;;;;;;5134577;27;20233;-80
2022/12/18 02:31:18;;;;;;;40.73;20.87;;;;;;;;;;5135099;27;20197;-80
2022/12/18 02:33:46;;;;;;;40.40;18.83;;;;;;;;;;5135153;27;20197;-79
2022/12/18 02:36:14;;;;;;;34.03;17.73;;;;;;;;;;5134709;27;20233;-79
2022/12/18 02:38:42;;;;;;;43.73;20.87;;;;;;;;;;5135374;27;20201;-79
2022/12/18 02:41:10;;;;;;;42.30;20.70;;;;;;;;;;5134760;27;20220;-79
2022/12/18 02:43:38;;;;;;;37.90;20.20;;;;;;;;;;5135327;27;20229;-79
2022/12/18 02:46:20;;;;;;;34.30;18.57;;;;;;;;;;5135411;27;20197;-79
2022/12/18 02:48:48;;;;;;;37.23;19.80;;;;;;;;;;5134582;27;20265;-79
2022/12/18 02:51:19;;;;;;;37.60;19.93;;;;;;;;;;5135024;27;20224;-79
2022/12/18 02:53:49;;;;;;;39.00;20.43;;;;;;;;;;5134021;27;20232;-79
2022/12/18 02:56:20;;;;;;;36.67;20.50;;;;;;;;;;5134724;27;20254;-80
2022/12/18 02:58:55;;;;;;;38.63;19.80;;;;;;;;;;5134735;27;20855;-80
2022/12/18 03:01:27;;;;;;;36.93;20.00;;;;;;;;;;5134685;27;20260;-80
2022/12/18 03:03:57;;;;;;;38.17;20.13;;;;;;;;;;5134684;27;20270;-79
2022/12/18 03:06:25;;;;;;;37.60;19.93;;;;;;;;;;5135021;27;20197;-79
2022/12/18 03:08:55;;;;;;;37.30;19.73;;;;;;;;;;5135321;27;20227;-79
2022/12/18 03:14:10;;;;;;;43.83;20.77;;;;;;;;;;5113092;28;20194;-78
2022/12/18 03:16:38;;;;;;;37.43;19.30;;;;;;;;;;5113960;28;20241;-80
2022/12/18 03:19:08;;;;;;;37.33;18.57;;;;;;;;;;5115205;27;20196;-79
2022/12/18 03:21:38;;;;;;;41.23;19.63;;;;;;;;;;5114394;28;20225;-79
2022/12/18 03:24:07;;;;;;;37.07;20.33;;;;;;;;;;5122485;27;20193;-78
2022/12/18 03:26:36;;;;;;;36.27;19.80;;;;;;;;;;5134542;27;20268;-80
2022/12/18 03:29:04;;;;;;;39.60;20.57;;;;;;;;;;5134488;27;20212;-80
2022/12/18 03:31:34;;;;;;;37.90;19.57;;;;;;;;;;5134409;27;20193;-78
2022/12/18 03:34:03;;;;;;;37.93;20.97;;;;;;;;;;5134363;27;20250;-80
2022/12/18 03:36:31;;;;;;;38.17;19.47;;;;;;;;;;5133262;27;20680;-81
2022/12/18 03:39:00;;;;;;;37.90;20.17;;;;;;;;;;5133333;27;20219;-80
2022/12/18 03:41:31;;;;;;;35.13;19.27;;;;;;;;;;5133813;27;20755;-81
2022/12/18 03:44:04;;;;;;;36.47;19.70;;;;;;;;;;5133759;27;20277;-80
2022/12/18 03:46:37;;;;;;;34.10;19.63;;;;;;;;;;5134334;27;20197;-81
2022/12/18 03:49:08;;;;;;;36.07;19.70;;;;;;;;;;5134047;27;20213;-80
2022/12/18 03:51:39;;;;;;;37.50;19.93;;;;;;;;;;5134131;27;20243;-80
2022/12/18 03:54:08;;;;;;;38.60;20.57;;;;;;;;;;5133105;27;20229;-80
2022/12/18 03:56:38;;;;;;;37.10;20.77;;;;;;;;;;5133860;27;20202;-81
2022/12/18 03:59:06;;;;;;;36.50;19.90;;;;;;;;;;5133566;27;20216;-78
2022/12/18 04:01:36;;;;;;;38.60;20.27;;;;;;;;;;5133613;27;20231;-79
2022/12/18 04:04:04;;;;;;;39.17;20.43;;;;;;;;;;5133471;27;20201;-81
2022/12/18 04:06:32;;;;;;;40.30;20.77;;;;;;;;;;5132738;27;20743;-81
2022/12/18 04:08:59;;;;;;;41.63;20.70;;;;;;;;;;5133012;27;20232;-80
2022/12/18 04:11:26;;;;;;;37.97;20.30;;;;;;;;;;5133828;27;20202;-79
2022/12/18 04:13:57;;;;;;;38.53;21.07;;;;;;;;;;5133791;27;20205;-81
2022/12/18 04:16:24;;;;;;;39.40;20.30;;;;;;;;;;5122965;27;20288;-80
2022/12/18 04:18:53;;;;;;;38.27;20.57;;;;;;;;;;5122749;27;20198;-80
2022/12/18 04:21:20;;;;;;;34.40;20.27;;;;;;;;;;5133515;27;20246;-81
2022/12/18 04:23:48;;;;;;;36.33;20.03;;;;;;;;;;5132713;27;20201;-80
2022/12/18 04:26:15;;;;;;;35.53;18.57;;;;;;;;;;5133678;27;20668;-80
2022/12/18 04:28:42;;;;;;;34.50;19.57;;;;;;;;;;5112527;28;20206;-80
2022/12/18 04:31:09;;;;;;;37.77;20.87;;;;;;;;;;5113279;28;20190;-81
2022/12/18 04:33:37;;;;;;;40.00;20.80;;;;;;;;;;5112460;28;20251;-80
2022/12/18 04:36:06;;;;;;;46.37;22.03;;;;;;;;;;5113199;27;20205;-80
2022/12/18 04:38:33;;;;;;;35.40;19.90;;;;;;;;;;5123450;28;20204;-81
2022/12/18 04:41:00;;;;;;;36.90;19.87;;;;;;;;;;5133385;27;20643;-80
2022/12/18 04:43:28;;;;;;;34.17;19.50;;;;;;;;;;5133104;27;20228;-80
2022/12/18 04:45:55;;;;;;;35.87;19.87;;;;;;;;;;5132752;28;20251;-80
2022/12/18 04:48:22;;;;;;;38.20;20.37;;;;;;;;;;5133630;28;20193;-80
2022/12/18 04:50:49;;;;;;;37.20;19.90;;;;;;;;;;5134881;27;20735;-80
2022/12/18 04:53:18;;;;;;;38.37;20.57;;;;;;;;;;5137380;27;20258;-80
2022/12/18 04:55:45;;;;;;;35.37;18.93;;;;;;;;;;5137487;27;20254;-81
2022/12/18 04:58:12;;;;;;;39.23;20.33;;;;;;;;;;5137553;27;20193;-80
2022/12/18 05:00:39;;;;;;;37.03;20.70;;;;;;;;;;5136706;27;20189;-80
2022/12/18 05:03:07;;;;;;;38.77;20.00;;;;;;;;;;5136247;27;20271;-80
2022/12/18 05:05:36;;;;;;;36.53;19.97;;;;;;;;;;5136242;27;20713;-80
2022/12/18 05:08:03;;;;;;;36.50;19.87;;;;;;;;;;5136155;27;20200;-80
2022/12/18 05:10:31;;;;;;;33.63;19.33;;;;;;;;;;5137164;27;20223;-81
2022/12/18 05:12:59;;;;;;;31.20;18.00;;;;;;;;;;5137090;27;20274;-80
2022/12/18 05:15:28;;;;;;;34.00;19.40;;;;;;;;;;5136888;27;20665;-78
2022/12/18 05:17:55;;;;;;;32.27;18.87;;;;;;;;;;5135919;27;20228;-79
2022/12/18 05:20:22;;;;;;;35.90;20.17;;;;;;;;;;5136846;27;20205;-79
2022/12/18 05:22:49;;;;;;;35.60;19.63;;;;;;;;;;5136371;27;20249;-79
2022/12/18 05:25:17;;;;;;;35.80;19.20;;;;;;;;;;5136796;27;20229;-79
2022/12/18 05:27:46;;;;;;;36.20;19.07;;;;;;;;;;5137066;27;20263;-79
2022/12/18 05:30:13;;;;;;;35.97;20.03;;;;;;;;;;5136374;27;20269;-79
2022/12/18 05:32:41;;;;;;;34.67;18.83;;;;;;;;;;5136746;27;20191;-79
2022/12/18 05:35:09;;;;;;;37.20;20.10;;;;;;;;;;5136445;27;20247;-79
2022/12/18 05:37:37;;;;;;;34.77;19.70;;;;;;;;;;5136839;27;20198;-80
2022/12/18 05:40:04;;;;;;;37.63;19.90;;;;;;;;;;5128864;27;20209;-79
2022/12/18 05:42:32;;;;;;;35.97;19.13;;;;;;;;;;5136463;27;20688;-79
2022/12/18 05:45:00;;;;;;;34.07;18.93;;;;;;;;;;5136530;27;20219;-79
2022/12/18 05:47:29;;;;;;;34.30;19.33;;;;;;;;;;5135297;27;20233;-79
2022/12/18 05:49:56;;;;;;;36.80;19.83;;;;;;;;;;5136060;27;20209;-79
2022/12/18 05:52:23;;;;;;;33.70;19.57;;;;;;;;;;5136482;27;20252;-79
2022/12/18 05:54:50;;;;;;;33.70;19.40;;;;;;;;;;5135714;27;20227;-80
2022/12/18 05:57:18;;;;;;;34.10;19.90;;;;;;;;;;5136347;27;20616;-79
2022/12/18 05:59:45;;;;;;;37.50;19.67;;;;;;;;;;5136571;27;20251;-79
2022/12/18 06:02:14;;;;;;;34.97;19.40;;;;;;;;;;5135842;27;20268;-80
2022/12/18 06:04:41;;;;;;;33.07;19.30;;;;;;;;;;5135507;27;20237;-79
2022/12/18 06:07:08;;;;;;;33.80;19.43;;;;;;;;;;5136600;27;20259;-79
2022/12/18 06:09:35;;;;;;;34.30;18.67;;;;;;;;;;5135462;27;20900;-79
2022/12/18 06:12:02;;;;;;;29.17;16.57;;;;;;;;;;5136016;27;20234;-80
2022/12/18 06:14:30;;;;;;;32.27;18.87;;;;;;;;;;5135838;27;20203;-79
2022/12/18 06:16:57;;;;;;;34.50;19.87;;;;;;;;;;5135628;27;20278;-80
2022/12/18 06:19:26;;;;;;;33.33;19.03;;;;;;;;;;5135389;27;20198;-79
2022/12/18 06:21:53;;;;;;;33.67;19.13;;;;;;;;;;5135352;27;20782;-79
2022/12/18 06:24:20;;;;;;;34.30;19.90;;;;;;;;;;5135726;27;20199;-79
2022/12/18 06:26:47;;;;;;;33.03;19.17;;;;;;;;;;5135491;27;20705;-79
2022/12/18 06:29:14;;;;;;;34.17;18.47;;;;;;;;;;5135997;27;20223;-79
2022/12/18 06:31:42;;;;;;;34.87;19.27;;;;;;;;;;5135112;27;20623;-79
2022/12/18 06:34:09;;;;;;;33.67;19.17;;;;;;;;;;5135159;27;20229;-79
2022/12/18 06:36:37;;;;;;;33.97;20.17;;;;;;;;;;5135689;27;20687;-80
2022/12/18 06:39:05;;;;;;;35.90;20.27;;;;;;;;;;5135701;27;20234;-80
2022/12/18 06:41:32;;;;;;;36.57;19.53;;;;;;;;;;5136049;27;20286;-80
2022/12/18 06:43:59;;;;;;;31.67;19.30;;;;;;;;;;5135171;27;20666;-79
2022/12/18 06:46:26;;;;;;;35.00;18.80;;;;;;;;;;5135711;27;20209;-79
2022/12/18 06:48:53;;;;;;;35.50;21.00;;;;;;;;;;5134360;27;20725;-79
2022/12/18 06:51:21;;;;;;;35.57;20.33;;;;;;;;;;5135404;27;20244;-79
2022/12/18 06:53:50;;;;;;;32.73;18.77;;;;;;;;;;5135488;27;20232;-79
2022/12/18 06:56:18;;;;;;;36.17;19.50;;;;;;;;;;5135133;27;20290;-79
2022/12/18 06:58:45;;;;;;;33.90;19.47;;;;;;;;;;5135165;27;20202;-79
2022/12/18 07:01:13;;;;;;;36.90;19.87;;;;;;;;;;5134587;27;20278;-79
2022/12/18 07:03:41;;;;;;;33.80;18.87;;;;;;;;;;5130025;27;20254;-79
2022/12/18 07:06:15;;;;;;;37.17;19.73;;;;;;;;;;5134837;27;20207;-80
2022/12/18 07:08:42;;;;;;;35.27;19.43;;;;;;;;;;5134627;27;20233;-79
2022/12/18 07:11:10;;;;;;;42.33;23.17;;;;;;;;;;5134722;27;20241;-79
2022/12/18 07:13:38;;;;;;;51.63;25.03;;;;;;;;;;5134015;27;20656;-79
2022/12/18 07:16:06;;;;;;;52.27;27.40;;;;;;;;;;5134484;27;20254;-78
2022/12/18 07:18:33;;;;;;;52.10;28.37;;;;;;;;;;5134664;27;20205;-81
2022/12/18 07:21:03;;;;;;;51.20;25.17;;;;;;;;;;5117242;27;20231;-78
2022/12/18 07:23:31;;;;;;;53.57;28.70;;;;;;;;;;5114002;28;20221;-79
2022/12/18 07:26:01;;;;;;;49.27;27.50;;;;;;;;;;5113928;28;20588;-79
2022/12/18 07:28:30;;;;;;;49.57;23.67;;;;;;;;;;5113858;28;20859;-79
2022/12/18 07:30:58;;;;;;;59.87;30.83;;;;;;;;;;5113741;28;20663;-80
2022/12/18 07:33:26;;;;;;;58.53;29.07;;;;;;;;;;5113714;28;20257;-81
2022/12/18 07:35:53;;;;;;;86.27;44.57;;;;;;;;;;5129243;27;20204;-79
2022/12/18 07:38:20;;;;;;;67.67;34.17;;;;;;;;;;5133471;27;20225;-78
2022/12/18 07:40:47;;;;;;;67.20;36.53;;;;;;;;;;5127991;27;20195;-79
2022/12/18 07:43:15;;;;;;;44.60;24.40;;;;;;;;;;5134441;27;20284;-78
2022/12/18 07:45:44;;;;;;;50.10;25.23;;;;;;;;;;5133607;27;20200;-79
2022/12/18 07:48:11;;;;;;;46.60;23.80;;;;;;;;;;5133894;27;20668;-79
2022/12/18 07:50:38;;;;;;;43.00;23.50;;;;;;;;;;5115895;27;20212;-81
2022/12/18 07:53:05;;;;;;;46.10;24.33;;;;;;;;;;5134323;27;20200;-80
2022/12/18 07:55:33;;;;;;;35.70;18.23;;;;;;;;;;5125649;27;20208;-79
2022/12/18 07:58:02;;;;;;;34.27;19.30;;;;;;;;;;5133957;27;20204;-81
2022/12/18 08:00:30;;;;;;;37.63;19.87;;;;;;;;;;5133814;27;20605;-78
2022/12/18 08:02:58;;;;;;;36.00;18.90;;;;;;;;;;5132525;27;20261;-79
2022/12/18 08:05:25;;;;;;;37.47;20.70;;;;;;;;;;5133561;27;20725;-79
2022/12/18 08:07:53;;;;;;;40.73;22.80;;;;;;;;;;5133505;27;20245;-79
2022/12/18 08:10:20;;;;;;;37.10;21.17;;;;;;;;;;5133691;27;20189;-79
2022/12/18 08:12:50;;;;;;;35.93;18.13;;;;;;;;;;5133863;27;20269;-80
2022/12/18 08:15:17;;;;;;;35.77;20.33;;;;;;;;;;5133331;27;20197;-80
2022/12/18 08:17:44;;;;;;;30.10;17.20;;;;;;;;;;5132731;27;20954;-80
2022/12/18 08:20:14;;;;;;;42.87;21.90;;;;;;;;;;5132671;27;20200;-80
2022/12/18 08:22:42;;;;;;;36.40;20.23;;;;;;;;;;5114359;27;20308;-80
2022/12/18 08:25:09;;;;;;;36.80;20.50;;;;;;;;;;5113071;28;20242;-82
2022/12/18 08:27:37;;;;;;;37.30;19.67;;;;;;;;;;5113210;28;20254;-81
2022/12/18 08:30:04;;;;;;;45.00;23.57;;;;;;;;;;5104172;28;20221;-81
2022/12/18 08:32:32;;;;;;;38.33;22.70;;;;;;;;;;5127523;27;20220;-82
2022/12/18 08:34:59;;;;;;;40.13;21.20;;;;;;;;;;5132191;27;20635;-83
2022/12/18 08:37:28;;;;;;;39.63;20.37;;;;;;;;;;5132695;27;20225;-82
2022/12/18 08:39:55;;;;;;;36.63;20.43;;;;;;;;;;5133047;27;20685;-80
2022/12/18 08:45:08;;;;;;;33.93;18.13;;;;;;;;;;5124853;28;20250;-82
2022/12/18 08:47:35;;;;;;;35.40;18.43;;;;;;;;;;5132890;28;20201;-80
2022/12/18 08:50:02;;;;;;;37.27;19.90;;;;;;;;;;5128126;28;20201;-81
2022/12/18 08:52:33;;;;;;;37.80;21.57;;;;;;;;;;5129049;28;20209;-81
2022/12/18 08:55:00;;;;;;;39.43;20.70;;;;;;;;;;5133162;28;20250;-81
2022/12/18 08:57:27;;;;;;;37.77;20.00;;;;;;;;;;5132786;28;20298;-81
2022/12/18 08:59:54;;;;;;;41.20;20.23;;;;;;;;;;5132762;28;20196;-81
2022/12/18 09:02:22;;;;;;;40.93;21.80;;;;;;;;;;5127296;28;20239;-81
2022/12/18 09:04:49;;;;;;;33.33;18.03;;;;;;;;;;5131110;28;20264;-80
2022/12/18 09:07:16;;;;;;;37.73;21.17;;;;;;;;;;5132172;28;20197;-81
2022/12/18 09:09:45;;;;;;;34.73;19.93;;;;;;;;;;5132411;28;20582;-80
2022/12/18 09:12:12;;;;;;;35.27;20.23;;;;;;;;;;5133045;28;20229;-80
2022/12/18 09:14:40;;;;;;;31.70;16.83;;;;;;;;;;5132749;28;20193;-80
2022/12/18 09:17:07;;;;;;;34.17;18.40;;;;;;;;;;5132116;28;20197;-81
2022/12/18 09:19:34;;;;;;;31.27;18.17;;;;;;;;;;5132659;28;20231;-81
2022/12/18 09:22:01;;;;;;;32.17;17.47;;;;;;;;;;5133052;28;20228;-80
2022/12/18 09:24:28;;;;;;;37.43;19.73;;;;;;;;;;5132858;28;20189;-81
2022/12/18 09:26:57;;;;;;;32.00;16.17;;;;;;;;;;5131185;28;20221;-80
2022/12/18 09:29:24;;;;;;;36.27;20.57;;;;;;;;;;5132978;28;20262;-80
2022/12/18 09:31:52;;;;;;;34.53;19.93;;;;;;;;;;5132153;28;20721;-81
2022/12/18 09:34:20;;;;;;;29.00;16.40;;;;;;;;;;5132034;28;20193;-81
2022/12/18 09:36:48;;;;;;;29.87;16.33;;;;;;;;;;5119546;27;20597;-82
2022/12/18 09:39:15;;;;;;;35.80;19.03;;;;;;;;;;5132276;27;20216;-81
2022/12/18 09:41:44;;;;;;;42.83;24.07;;;;;;;;;;5131685;27;20194;-81
2022/12/18 09:44:17;;;;;;;36.50;19.87;;;;;;;;;;5135480;27;20272;-83
2022/12/18 09:46:46;;;;;;;35.93;20.27;;;;;;;;;;5129440;27;20224;-82
2022/12/18 09:49:14;;;;;;;41.67;21.60;;;;;;;;;;5130889;27;20199;-82
2022/12/18 09:51:45;;;;;;;37.17;20.00;;;;;;;;;;5130736;27;20197;-83
2022/12/18 09:54:14;;;;;;;41.93;20.77;;;;;;;;;;5118911;27;20228;-82
2022/12/18 09:56:42;;;;;;;39.03;21.57;;;;;;;;;;5132628;27;20247;-83
2022/12/18 09:59:19;;;;;;;37.70;20.20;;;;;;;;;;5136025;27;20249;-82
2022/12/18 10:01:48;;;;;;;39.97;21.37;;;;;;;;;;5135795;27;20744;-77
2022/12/18 10:04:15;;;;;;;33.50;18.40;;;;;;;;;;5135270;27;20308;-80
2022/12/18 10:06:47;;;;;;;24.13;13.27;;;;;;;;;;5135869;27;20205;-81
2022/12/18 10:09:18;;;;;;;37.03;21.43;;;;;;;;;;5129269;27;20223;-79
2022/12/18 10:11:50;;;;;;;37.63;19.70;;;;;;;;;;5124041;27;20247;-82
2022/12/18 10:14:22;;;;;;;35.00;17.80;;;;;;;;;;5136523;27;20191;-82
2022/12/18 10:16:53;;;;;;;38.87;20.40;;;;;;;;;;5121510;27;20225;-81
2022/12/18 10:19:25;;;;;;;35.90;20.30;;;;;;;;;;5138152;27;20551;-81
2022/12/18 10:21:58;;;;;;;36.70;18.93;;;;;;;;;;5137916;27;20268;-83
2022/12/18 10:24:30;;;;;;;35.20;18.70;;;;;;;;;;5130370;27;20265;-82
2022/12/18 10:27:00;;;;;;;38.57;19.90;;;;;;;;;;5135055;27;20202;-82
2022/12/18 10:29:27;;;;;;;36.27;20.47;;;;;;;;;;5132283;27;20213;-84
2022/12/18 10:31:56;;;;;;;38.80;21.03;;;;;;;;;;5140994;27;20716;-83
2022/12/18 10:34:23;;;;;;;38.17;18.83;;;;;;;;;;5133808;27;20610;-83
2022/12/18 10:36:50;;;;;;;40.30;20.17;;;;;;;;;;5134784;27;20193;-83
2022/12/18 10:39:22;;;;;;;39.93;21.47;;;;;;;;;;5139356;27;20609;-83
2022/12/18 10:41:51;;;;;;;38.73;21.13;;;;;;;;;;5134526;27;20668;-82
2022/12/18 10:44:20;;;;;;;41.73;21.60;;;;;;;;;;5126093;27;20214;-83
2022/12/18 10:46:47;;;;;;;38.00;20.87;;;;;;;;;;5129060;27;20201;-83
2022/12/18 10:49:23;;;;;;;37.13;21.27;;;;;;;;;;5139705;27;20193;-82
2022/12/18 10:51:51;;;;;;;37.57;21.57;;;;;;;;;;5136015;27;20198;-82
2022/12/18 10:54:19;;;;;;;40.97;22.47;;;;;;;;;;5132894;27;20693;-82
2022/12/18 10:56:47;;;;;;;35.13;21.23;;;;;;;;;;5134342;27;20190;-82
2022/12/18 10:59:17;;;;;;;39.97;22.30;;;;;;;;;;5132953;27;20197;-82
2022/12/18 11:01:49;;;;;;;40.20;22.70;;;;;;;;;;5133687;27;20663;-82
2022/12/18 11:04:18;;;;;;;34.53;16.47;;;;;;;;;;5113486;27;20318;-81
2022/12/18 11:06:56;;;;;;;36.57;21.17;;;;;;;;;;5132473;27;20556;-84
2022/12/18 11:09:24;;;;;;;34.80;20.10;;;;;;;;;;5128598;27;20198;-82
2022/12/18 11:11:53;;;;;;;35.17;21.53;;;;;;;;;;5120130;27;20222;-82
2022/12/18 11:14:24;;;;;;;36.70;21.00;;;;;;;;;;5131703;27;20608;-82
2022/12/18 11:16:52;;;;;;;38.67;20.80;;;;;;;;;;5131962;27;20227;-82
2022/12/18 11:19:24;;;;;;;36.47;20.70;;;;;;;;;;5126371;27;20244;-82
2022/12/18 11:21:52;;;;;;;35.17;17.97;;;;;;;;;;5134426;27;20619;-82
2022/12/18 11:24:25;;;;;;;32.70;18.80;;;;;;;;;;5143148;27;20214;-82
2022/12/18 11:26:53;;;;;;;34.40;20.03;;;;;;;;;;5123392;27;20197;-82
2022/12/18 11:29:26;;;;;;;25.00;16.13;;;;;;;;;;5139940;27;20269;-82
2022/12/18 11:31:53;;;;;;;29.87;17.87;;;;;;;;;;5139795;27;20191;-81
2022/12/18 11:34:24;;;;;;;30.83;16.80;;;;;;;;;;5122322;27;20203;-82
2022/12/18 11:36:52;;;;;;;39.37;21.43;;;;;;;;;;5133504;27;20221;-82
2022/12/18 11:39:21;;;;;;;27.83;14.17;;;;;;;;;;5139791;27;20240;-82
2022/12/18 11:42:10;;;;;;;34.80;19.17;;;;;;;;;;5129783;27;20279;-82
2022/12/18 11:44:40;;;;;;;32.73;18.80;;;;;;;;;;5132926;27;20761;-81
2022/12/18 11:47:11;;;;;;;32.10;20.23;;;;;;;;;;5114022;27;20201;-81
2022/12/18 11:49:39;;;;;;;36.13;21.93;;;;;;;;;;5121419;27;20259;-80
2022/12/18 11:52:11;;;;;;;30.53;18.00;;;;;;;;;;5131926;27;20705;-81
2022/12/18 11:54:38;;;;;;;37.17;21.20;;;;;;;;;;5129606;27;20321;-81
2022/12/18 11:57:12;;;;;;;33.37;18.87;;;;;;;;;;5133378;27;20662;-81
2022/12/18 11:59:45;;;;;;;29.87;17.77;;;;;;;;;;5126105;27;20222;-81
2022/12/18 12:02:24;;;;;;;35.83;21.67;;;;;;;;;;5132360;27;20249;-81
2022/12/18 12:05:06;;;;;;;32.93;18.57;;;;;;;;;;5132431;27;20715;-81
2022/12/18 12:07:39;;;;;;;32.20;19.30;;;;;;;;;;5123810;27;20681;-79
2022/12/18 12:10:13;;;;;;;36.60;22.20;;;;;;;;;;5133798;27;20734;-81
2022/12/18 12:12:50;;;;;;;30.77;17.67;;;;;;;;;;5132959;27;20194;-81
2022/12/18 12:15:36;;;;;;;34.97;20.17;;;;;;;;;;5125988;27;20202;-83
2022/12/18 12:18:10;;;;;;;37.87;21.63;;;;;;;;;;5133688;27;20194;-80
2022/12/18 12:20:42;;;;;;;35.37;20.40;;;;;;;;;;5115442;27;20300;-80
2022/12/18 12:23:16;;;;;;;36.73;21.40;;;;;;;;;;5117764;27;20309;-80
2022/12/18 12:25:48;;;;;;;37.27;20.83;;;;;;;;;;5124191;27;20224;-80
2022/12/18 12:28:22;;;;;;;34.17;21.07;;;;;;;;;;5132469;27;20231;-79
2022/12/18 12:30:57;;;;;;;35.83;21.30;;;;;;;;;;5130118;27;20218;-79
2022/12/18 12:33:29;;;;;;;34.07;19.53;;;;;;;;;;5127434;27;20846;-78
2022/12/18 12:36:02;;;;;;;36.77;21.30;;;;;;;;;;5130440;27;20251;-78
2022/12/18 12:38:32;;;;;;;33.80;18.90;;;;;;;;;;5130351;27;20281;-81
2022/12/18 12:41:01;;;;;;;34.10;20.03;;;;;;;;;;5130782;27;20232;-78
2022/12/18 12:43:34;;;;;;;30.23;15.57;;;;;;;;;;5123134;28;20262;-80
2022/12/18 12:46:04;;;;;;;33.27;18.53;;;;;;;;;;5131632;27;20587;-77
2022/12/18 12:48:38;;;;;;;33.10;19.50;;;;;;;;;;5130836;28;20234;-79
2022/12/18 12:51:10;;;;;;;27.80;16.03;;;;;;;;;;5131371;28;20235;-78
2022/12/18 12:53:38;;;;;;;36.40;20.00;;;;;;;;;;5131066;28;20675;-78
2022/12/18 12:56:07;;;;;;;25.90;14.63;;;;;;;;;;5127971;27;20236;-78
2022/12/18 12:58:40;;;;;;;34.57;20.87;;;;;;;;;;5131812;28;20200;-78
2022/12/18 13:01:14;;;;;;;37.33;23.23;;;;;;;;;;5131998;28;20570;-79
2022/12/18 13:03:45;;;;;;;38.20;21.57;;;;;;;;;;5124302;28;20220;-78
2022/12/18 13:06:16;;;;;;;39.80;22.23;;;;;;;;;;5132152;28;20236;-78
2022/12/18 13:08:57;;;;;;;36.03;21.03;;;;;;;;;;5131223;28;20231;-79
2022/12/18 13:14:26;;;;;;;33.37;19.27;;;;;;;;;;5136862;27;20241;-78
2022/12/18 13:16:53;;;;;;;29.77;16.67;;;;;;;;;;5129624;27;20608;-75
2022/12/18 13:19:25;;;;;;;33.43;20.43;;;;;;;;;;5133343;27;20229;-76
2022/12/18 13:21:56;;;;;;;35.40;21.87;;;;;;;;;;5135080;27;20303;-75
2022/12/18 13:24:26;;;;;;;32.87;21.37;;;;;;;;;;5136003;27;20216;-79
2022/12/18 13:26:53;;;;;;;32.27;18.87;;;;;;;;;;5130837;27;20224;-76
2022/12/18 13:29:35;;;;;;;30.37;19.30;;;;;;;;;;5134866;27;20224;-76
2022/12/18 13:32:04;;;;;;;30.93;19.77;;;;;;;;;;5131418;27;20257;-75
2022/12/18 13:34:32;;;;;;;29.17;19.57;;;;;;;;;;5131993;27;20259;-75
2022/12/18 13:37:19;;;;;;;33.27;21.53;;;;;;;;;;5132462;27;20207;-76
2022/12/18 13:39:46;;;;;;;35.33;21.40;;;;;;;;;;5135037;27;20200;-77
2022/12/18 13:45:48;;;;;;;35.23;21.53;;;;;;;;;;5123241;27;20336;-75
2022/12/18 13:48:25;;;;;;;35.10;21.87;;;;;;;;;;5067447;28;20663;-76
2022/12/18 13:50:58;;;;;;;32.90;20.63;;;;;;;;;;5061129;28;20692;-76
2022/12/18 13:53:28;;;;;;;31.90;19.80;;;;;;;;;;5051197;28;20306;-75
2022/12/18 13:55:56;;;;;;;30.63;17.87;;;;;;;;;;5070335;28;20253;-75
2022/12/18 13:58:23;;;;;;;32.47;21.13;;;;;;;;;;5053467;28;20738;-76
2022/12/18 14:00:50;;;;;;;33.10;19.77;;;;;;;;;;5066787;28;20312;-76
2022/12/18 14:03:19;;;;;;;31.70;20.60;;;;;;;;;;5054245;28;20730;-75
2022/12/18 14:05:53;;;;;;;35.53;21.40;;;;;;;;;;5055016;28;20272;-76
2022/12/18 14:08:20;;;;;;;28.50;17.13;;;;;;;;;;5061831;28;20199;-75
2022/12/18 14:10:48;;;;;;;33.77;21.83;;;;;;;;;;5065837;28;20713;-75
2022/12/18 14:13:21;;;;;;;34.37;20.83;;;;;;;;;;5063206;28;20203;-76
2022/12/18 14:15:49;;;;;;;34.57;21.13;;;;;;;;;;5060040;28;20616;-75
2022/12/18 14:18:21;;;;;;;34.57;19.63;;;;;;;;;;5054441;28;20308;-75
2022/12/18 14:20:50;;;;;;;25.90;16.63;;;;;;;;;;5058812;28;20207;-76
2022/12/18 14:23:28;;;;;;;33.70;20.90;;;;;;;;;;5118764;27;20235;-75
2022/12/18 14:25:55;;;;;;;32.67;20.00;;;;;;;;;;5126746;27;20255;-75
2022/12/18 14:28:22;;;;;;;31.30;18.10;;;;;;;;;;5122141;27;20211;-77
2022/12/18 14:30:50;;;;;;;35.53;21.10;;;;;;;;;;5116993;27;20214;-77
2022/12/18 14:33:18;;;;;;;33.60;21.30;;;;;;;;;;5128163;27;20224;-76
2022/12/18 14:35:56;;;;;;;32.67;18.60;;;;;;;;;;5134311;27;20192;-76
2022/12/18 14:38:24;;;;;;;33.03;19.30;;;;;;;;;;5119887;27;20229;-75
2022/12/18 14:40:56;;;;;;;37.40;21.97;;;;;;;;;;5136816;27;20250;-76
2022/12/18 14:43:23;;;;;;;34.03;21.43;;;;;;;;;;5135454;27;20224;-74